EGYD - Cranwell
Distance from station: E 5mi, 14km
Updated: 07/15/2018 2:50pm
NOT Current
Few Clouds
Few Clouds
 Wind from W
Wind: W 8 mph , 13 km/h
Temperature: 68°F , 20°C
Dew Point: 54°F , 12°C
Humidity: 60%
Barometer: 29.94 inHg , 1014 hPa
Clouds: Few Clouds
Visibility: 6 miles , 10 km
Cloud details: Few Clouds 7000 ft
2018/07/15 21:50 EGYD 152150Z AUTO 26007KT 9999 // FEW070/// 20/12 Q1014